createdAt,value
2019-05-14T00:01:11.805Z,51.79
2019-05-14T00:03:41.516Z,52.76
2019-05-14T00:06:11.485Z,53.20
2019-05-14T00:08:41.821Z,53.32
2019-05-14T00:11:13.027Z,53.33
2019-05-14T00:13:42.477Z,53.99
2019-05-14T00:16:11.984Z,53.62
2019-05-14T00:18:41.973Z,54.23
2019-05-14T00:21:12.245Z,54.05
2019-05-14T00:23:42.145Z,54.08
2019-05-14T00:26:12.206Z,54.51
2019-05-14T00:28:42.240Z,55.15
2019-05-14T00:31:12.194Z,55.24
2019-05-14T00:33:42.041Z,55.39
2019-05-14T00:36:12.416Z,55.71
2019-05-14T00:38:42.129Z,55.72
2019-05-14T00:41:11.557Z,55.91
2019-05-14T00:43:41.605Z,56.25
2019-05-14T00:46:11.931Z,56.76
2019-05-14T00:48:42.217Z,57.13
2019-05-14T00:51:11.665Z,57.01
2019-05-14T00:53:42.163Z,57.34
2019-05-14T00:56:12.661Z,57.51
2019-05-14T00:58:42.005Z,57.80
2019-05-14T01:01:11.866Z,58.27
2019-05-14T01:03:41.571Z,58.50
2019-05-14T01:06:11.487Z,58.49
2019-05-14T01:08:41.389Z,58.97
2019-05-14T01:11:11.809Z,59.17
2019-05-14T01:13:41.777Z,59.56
2019-05-14T01:16:12.007Z,59.52
2019-05-14T01:18:41.876Z,60.62
2019-05-14T01:21:11.802Z,60.97
2019-05-14T01:23:41.744Z,61.19
2019-05-14T01:26:11.977Z,61.67
2019-05-14T01:28:41.750Z,61.83
2019-05-14T01:31:11.752Z,62.11
2019-05-14T01:33:42.535Z,62.14
2019-05-14T01:36:12.390Z,62.16
2019-05-14T01:38:42.041Z,62.46
2019-05-14T01:41:11.918Z,62.77
2019-05-14T01:43:41.914Z,62.71
2019-05-14T01:46:12.255Z,62.49
2019-05-14T01:48:41.873Z,63.20
2019-05-14T01:51:11.866Z,63.25
2019-05-14T01:53:41.815Z,63.50
2019-05-14T01:56:12.268Z,63.47
2019-05-14T01:58:41.861Z,63.38
2019-05-14T02:01:11.983Z,63.67
2019-05-14T02:03:41.599Z,63.76
2019-05-14T02:06:11.886Z,64.02
2019-05-14T02:08:41.555Z,64.23
2019-05-14T02:11:12.144Z,64.38
2019-05-14T02:13:41.581Z,64.72
2019-05-14T02:16:13.091Z,64.64
2019-05-14T02:18:41.937Z,64.73
2019-05-14T02:21:11.773Z,65.04
2019-05-14T02:23:42.123Z,65.17
2019-05-14T02:26:11.562Z,64.89
2019-05-14T02:28:42.133Z,64.96
2019-05-14T02:31:11.626Z,64.94
2019-05-14T02:33:41.188Z,65.32
2019-05-14T02:36:10.737Z,65.69
2019-05-14T02:38:40.143Z,65.63
2019-05-14T02:41:10.113Z,65.54
2019-05-14T02:43:40.929Z,65.65
2019-05-14T02:46:16.162Z,65.95
2019-05-14T02:48:41.899Z,65.84
2019-05-14T02:51:12.225Z,65.43
2019-05-14T02:53:41.558Z,65.95
2019-05-14T02:56:10.909Z,66.04
2019-05-14T02:58:40.385Z,65.94
2019-05-14T03:01:09.787Z,66.23
2019-05-14T03:03:40.209Z,66.48
2019-05-14T03:06:10.064Z,66.63
2019-05-14T03:08:39.391Z,66.74
2019-05-14T03:11:09.419Z,66.99
2019-05-14T03:13:40.082Z,66.83
2019-05-14T03:16:22.388Z,67.27
2019-05-14T03:18:40.841Z,67.61
2019-05-14T03:21:10.175Z,67.36
2019-05-14T03:23:39.605Z,67.59
2019-05-14T03:26:09.760Z,68.07
2019-05-14T03:28:39.998Z,67.94
2019-05-14T03:31:12.936Z,68.27
2019-05-14T03:33:43.910Z,68.34
2019-05-14T03:36:17.972Z,68.58
2019-05-14T03:38:42.922Z,68.76
2019-05-14T03:41:14.289Z,68.83
2019-05-14T03:43:43.281Z,69.09
2019-05-14T03:46:12.636Z,69.00
2019-05-14T03:48:41.972Z,69.36
2019-05-14T03:51:11.328Z,69.49
2019-05-14T03:53:55.447Z,69.41
2019-05-14T03:56:12.333Z,69.53
2019-05-14T03:58:41.693Z,69.80
2019-05-14T04:01:11.097Z,70.07
2019-05-14T04:03:40.414Z,70.21
2019-05-14T04:06:11.015Z,70.33
2019-05-14T04:08:42.668Z,70.40
2019-05-14T04:11:14.252Z,70.92
2019-05-14T04:13:49.393Z,71.10
2019-05-14T04:16:20.807Z,71.13
2019-05-14T04:18:50.683Z,71.22
2019-05-14T04:21:21.259Z,71.37
2019-05-14T04:23:51.406Z,71.60
2019-05-14T04:26:21.649Z,71.76
2019-05-14T04:28:51.606Z,71.77
2019-05-14T04:31:21.276Z,72.19
2019-05-14T04:33:51.390Z,72.04
2019-05-14T04:36:20.797Z,72.26
2019-05-14T04:38:54.770Z,72.22
2019-05-14T04:41:21.255Z,72.40
2019-05-14T04:43:50.721Z,72.82
2019-05-14T04:46:20.437Z,72.61
2019-05-14T04:48:50.967Z,72.72
2019-05-14T04:51:20.597Z,72.96
2019-05-14T04:53:50.486Z,73.26
2019-05-14T04:56:20.201Z,73.47
2019-05-14T04:58:50.332Z,73.67
2019-05-14T05:01:21.014Z,73.61
2019-05-14T05:03:50.879Z,73.56
2019-05-14T05:06:20.461Z,73.56
2019-05-14T05:08:50.360Z,73.52
2019-05-14T05:11:21.379Z,73.55
2019-05-14T05:13:51.031Z,73.46
2019-05-14T05:16:20.341Z,73.54
2019-05-14T05:18:49.692Z,73.45
2019-05-14T05:21:19.455Z,73.21
2019-05-14T05:23:49.544Z,73.24
2019-05-14T05:26:19.286Z,73.33
2019-05-14T05:29:02.454Z,73.17
2019-05-14T05:31:19.682Z,73.00
2019-05-14T05:33:49.264Z,73.04
2019-05-14T05:36:18.741Z,72.89
2019-05-14T05:38:49.151Z,72.77
2019-05-14T05:41:19.265Z,73.11
2019-05-14T05:43:48.754Z,73.21
2019-05-14T05:46:19.139Z,73.28
2019-05-14T05:48:48.752Z,73.15
2019-05-14T05:51:18.705Z,72.93
2019-05-14T05:53:48.649Z,72.63
2019-05-14T05:56:18.880Z,72.89
2019-05-14T05:58:48.906Z,72.79
2019-05-14T06:01:19.876Z,72.77
2019-05-14T06:03:49.515Z,71.50
2019-05-14T06:06:19.428Z,70.90
2019-05-14T06:08:49.598Z,69.91
2019-05-14T06:11:19.529Z,70.03
2019-05-14T06:13:49.408Z,68.95
2019-05-14T06:16:18.935Z,68.97
2019-05-14T06:18:49.271Z,69.25
2019-05-14T06:21:19.330Z,68.54
2019-05-14T06:23:49.572Z,68.50
2019-05-14T06:26:19.522Z,68.47
2019-05-14T06:28:49.808Z,68.17
2019-05-14T06:31:19.642Z,67.34
2019-05-14T06:33:49.452Z,67.11
2019-05-14T06:36:19.727Z,67.42
2019-05-14T06:38:49.718Z,70.12
2019-05-14T06:41:19.478Z,69.42
2019-05-14T06:43:49.066Z,62.00
2019-05-14T06:46:19.371Z,63.56
2019-05-14T06:48:49.107Z,62.50
2019-05-14T06:51:19.877Z,63.29
2019-05-14T06:53:50.117Z,63.49
2019-05-14T06:56:21.817Z,63.80
2019-05-14T06:58:50.801Z,62.94
2019-05-14T07:01:21.129Z,63.43
2019-05-14T07:03:50.456Z,62.46
2019-05-14T07:06:20.027Z,62.15
2019-05-14T07:08:52.396Z,61.34
2019-05-14T07:11:20.421Z,61.00
2019-05-14T07:13:49.740Z,61.58
2019-05-14T07:16:19.858Z,61.84
2019-05-14T07:18:53.632Z,60.92
2019-05-14T07:21:20.420Z,61.17
2019-05-14T07:23:50.951Z,60.74
2019-05-14T07:26:20.286Z,60.33
2019-05-14T07:28:49.632Z,60.73
2019-05-14T07:31:19.045Z,60.00
2019-05-14T07:33:49.521Z,59.52
2019-05-14T07:36:19.249Z,59.09
2019-05-14T07:38:49.174Z,62.33
2019-05-14T07:41:19.297Z,60.07
2019-05-14T07:43:48.953Z,58.49
2019-05-14T07:46:19.122Z,57.95
2019-05-14T07:49:04.293Z,58.11
2019-05-14T07:51:20.720Z,57.18
2019-05-14T07:53:50.078Z,56.42
2019-05-14T07:56:19.411Z,56.80
2019-05-14T07:58:49.290Z,56.16
2019-05-14T08:01:18.973Z,55.74
2019-05-14T08:03:49.000Z,56.07
2019-05-14T08:06:19.115Z,56.34
2019-05-14T08:08:49.624Z,57.99
2019-05-14T08:11:19.409Z,55.95
2019-05-14T08:13:49.355Z,55.81
2019-05-14T08:16:19.035Z,55.95
2019-05-14T08:18:48.888Z,57.93
2019-05-14T08:21:19.385Z,58.88
2019-05-14T08:23:52.419Z,54.65
2019-05-14T08:26:21.779Z,54.78
2019-05-14T08:28:51.148Z,54.47
2019-05-14T08:31:20.471Z,54.45
2019-05-14T08:33:49.807Z,54.02
2019-05-14T08:36:19.478Z,54.02
2019-05-14T08:38:49.982Z,54.04
2019-05-14T08:41:20.590Z,53.85
2019-05-14T08:43:49.930Z,54.17
2019-05-14T08:46:19.540Z,54.30
2019-05-14T08:48:49.886Z,54.96
2019-05-14T08:51:20.317Z,53.88
2019-05-14T08:53:50.591Z,55.08
2019-05-14T08:56:20.028Z,54.87
2019-05-14T08:58:49.732Z,54.72
2019-05-14T09:01:19.751Z,54.48
2019-05-14T09:03:49.607Z,54.86
2019-05-14T09:06:19.201Z,54.45
2019-05-14T09:08:49.646Z,53.57
2019-05-14T09:11:24.151Z,54.81
2019-05-14T09:13:50.891Z,54.30
2019-05-14T09:16:37.105Z,53.41
2019-05-14T09:18:51.332Z,53.45
2019-05-14T09:21:20.849Z,53.80
2019-05-14T09:23:51.575Z,53.68
2019-05-14T09:26:21.140Z,53.49
2019-05-14T09:28:50.717Z,51.03
2019-05-14T09:31:21.249Z,51.59
2019-05-14T09:33:50.586Z,51.35
2019-05-14T09:36:23.864Z,50.13
2019-05-14T09:38:50.977Z,50.65
2019-05-14T09:41:20.980Z,49.93
2019-05-14T09:43:50.340Z,50.53
2019-05-14T09:46:19.947Z,49.41
2019-05-14T09:48:49.521Z,48.28
2019-05-14T09:51:18.863Z,48.16
2019-05-14T09:53:48.949Z,47.62
2019-05-14T09:56:18.943Z,48.36
2019-05-14T09:58:49.658Z,46.60
2019-05-14T10:01:20.164Z,45.88
2019-05-14T10:03:49.911Z,46.47
2019-05-14T10:06:20.747Z,45.60
2019-05-14T10:08:50.310Z,44.86
2019-05-14T10:11:22.051Z,44.87
2019-05-14T10:13:51.432Z,44.85
2019-05-14T10:16:21.074Z,44.71
2019-05-14T10:18:52.818Z,43.49
2019-05-14T10:21:21.443Z,41.63
2019-05-14T10:23:52.034Z,41.11
2019-05-14T10:26:21.432Z,41.33
2019-05-14T10:28:50.699Z,40.89
2019-05-14T10:31:20.061Z,39.66
2019-05-14T10:33:49.419Z,39.71
2019-05-14T10:36:19.358Z,38.69
2019-05-14T10:38:48.999Z,45.42
2019-05-14T10:41:19.301Z,42.55
2019-05-14T10:43:49.682Z,45.62
2019-05-14T10:46:20.224Z,44.83
2019-05-14T10:48:49.825Z,41.48
2019-05-14T10:51:19.165Z,39.34
2019-05-14T10:53:49.011Z,37.63
2019-05-14T10:56:19.343Z,36.36
2019-05-14T10:58:49.336Z,37.16
2019-05-14T11:01:21.922Z,34.67
2019-05-14T11:03:49.749Z,35.83
2019-05-14T11:06:19.085Z,35.31
2019-05-14T11:08:49.233Z,34.93
2019-05-14T11:11:18.785Z,35.71
2019-05-14T11:13:48.278Z,34.50
2019-05-14T11:16:18.994Z,34.91
2019-05-14T11:18:49.781Z,34.93
2019-05-14T11:21:26.003Z,32.45
2019-05-14T11:23:50.716Z,32.75
2019-05-14T11:26:20.109Z,32.38
2019-05-14T11:28:49.503Z,29.75
2019-05-14T11:31:19.338Z,30.38
2019-05-14T11:33:49.862Z,28.67
2019-05-14T11:36:19.578Z,28.46
2019-05-14T11:38:50.721Z,27.34
2019-05-14T11:41:20.380Z,26.36
2019-05-14T11:43:49.742Z,24.92
2019-05-14T11:46:33.666Z,24.28
2019-05-14T11:48:50.386Z,25.48
2019-05-14T11:51:45.801Z,24.92
2019-05-14T11:53:50.747Z,24.28
2019-05-14T11:56:20.082Z,24.39
2019-05-14T11:58:49.495Z,22.60
2019-05-14T12:01:19.209Z,22.95
2019-05-14T12:03:50.499Z,21.67
2019-05-14T12:06:19.742Z,21.46
2019-05-14T12:08:49.310Z,20.22
2019-05-14T12:11:19.614Z,20.58
2019-05-14T12:13:49.031Z,20.18
2019-05-14T12:16:19.366Z,20.00
2019-05-14T12:18:48.710Z,20.22
2019-05-14T12:21:18.356Z,20.01
2019-05-14T12:23:47.705Z,19.87
2019-05-14T12:26:19.190Z,19.77
2019-05-14T12:28:49.379Z,19.21
2019-05-14T12:31:19.971Z,18.39
2019-05-14T12:33:49.309Z,18.38
2019-05-14T12:36:19.255Z,17.12
2019-05-14T12:38:49.209Z,17.88
2019-05-14T12:41:19.439Z,17.88
2019-05-14T12:43:49.055Z,18.15
2019-05-14T12:46:20.163Z,18.11
2019-05-14T12:48:49.813Z,18.52
2019-05-14T12:51:20.080Z,19.33
2019-05-14T12:53:49.420Z,17.90
2019-05-14T12:56:19.066Z,19.26
2019-05-14T12:58:49.469Z,18.17
2019-05-14T13:01:20.007Z,17.98
2019-05-14T13:03:49.625Z,17.64
2019-05-14T13:06:19.326Z,17.09
2019-05-14T13:08:49.315Z,17.10
2019-05-14T13:11:18.761Z,17.08
2019-05-14T13:13:49.086Z,15.84
2019-05-14T13:16:19.741Z,16.87
2019-05-14T13:18:50.231Z,15.90
2019-05-14T13:21:20.082Z,15.84
2019-05-14T13:23:49.479Z,16.03
2019-05-14T13:26:19.162Z,14.97
2019-05-14T13:28:50.924Z,15.37
2019-05-14T13:31:19.762Z,15.33
2019-05-14T13:33:49.178Z,15.22
2019-05-14T13:36:20.457Z,15.22
2019-05-14T13:38:49.587Z,15.37
2019-05-14T13:41:19.387Z,14.67
2019-05-14T13:43:50.686Z,14.71
2019-05-14T13:46:20.121Z,14.38
2019-05-14T13:48:50.114Z,15.82
2019-05-14T13:51:19.948Z,15.51
2019-05-14T13:53:49.959Z,15.19
2019-05-14T13:56:19.405Z,15.81
2019-05-14T13:58:49.099Z,15.44
2019-05-14T14:01:19.274Z,15.21
2019-05-14T14:04:02.729Z,15.96
2019-05-14T14:06:20.734Z,16.25
2019-05-14T14:08:50.439Z,16.13
2019-05-14T14:11:19.793Z,16.30
2019-05-14T14:13:49.268Z,16.03
2019-05-14T14:16:19.618Z,15.99
2019-05-14T14:18:50.303Z,16.50
2019-05-14T14:21:20.047Z,15.60
2019-05-14T14:23:49.886Z,15.81
2019-05-14T14:26:20.502Z,16.19
2019-05-14T14:28:50.807Z,16.46
2019-05-14T14:31:20.148Z,16.76
2019-05-14T14:33:49.484Z,16.76
2019-05-14T14:36:19.885Z,17.00
2019-05-14T14:38:49.966Z,16.52
2019-05-14T14:41:20.392Z,16.95
2019-05-14T14:43:54.513Z,16.03
2019-05-14T14:46:21.925Z,16.25
2019-05-14T14:48:51.255Z,15.37
2019-05-14T14:51:20.620Z,15.56
2019-05-14T14:53:59.427Z,15.56
2019-05-14T14:56:21.966Z,16.10
2019-05-14T14:58:51.301Z,16.21
2019-05-14T15:01:20.649Z,16.26
2019-05-14T15:03:50.969Z,16.69
2019-05-14T15:06:20.848Z,16.91
2019-05-14T15:08:50.162Z,16.91
2019-05-14T15:11:19.491Z,17.58
2019-05-14T15:13:49.164Z,17.36
2019-05-14T15:16:20.029Z,17.41
2019-05-14T15:18:50.025Z,17.68
2019-05-14T15:21:19.468Z,17.91
2019-05-14T15:24:05.988Z,18.18
2019-05-14T15:26:20.213Z,18.95
2019-05-14T15:28:49.784Z,19.05
2019-05-14T15:31:19.405Z,18.87
2019-05-14T15:33:50.989Z,19.15
2019-05-14T15:36:19.911Z,22.09
2019-05-14T15:38:49.338Z,27.32
2019-05-14T15:41:20.099Z,26.88
2019-05-14T15:43:49.916Z,25.09
2019-05-14T15:46:19.489Z,21.49
2019-05-14T15:48:49.061Z,27.12
2019-05-14T15:51:19.471Z,27.29
2019-05-14T15:54:05.621Z,27.96
2019-05-14T15:56:20.083Z,26.11
2019-05-14T15:58:49.447Z,28.54
2019-05-14T16:01:19.442Z,32.05
2019-05-14T16:03:49.860Z,32.67
2019-05-14T16:06:19.550Z,32.62
2019-05-14T16:08:49.074Z,27.74
2019-05-14T16:11:18.828Z,32.54
2019-05-14T16:13:49.373Z,29.15
2019-05-14T16:16:19.919Z,30.44
2019-05-14T16:18:49.221Z,30.88
2019-05-14T16:21:18.540Z,29.38
2019-05-14T16:23:47.880Z,26.02
2019-05-14T16:26:18.724Z,24.81
2019-05-14T16:28:48.265Z,26.03
2019-05-14T16:31:18.454Z,28.42
2019-05-14T16:33:49.375Z,26.97
2019-05-14T16:36:20.106Z,32.34
2019-05-14T16:38:49.471Z,29.89
2019-05-14T16:41:18.791Z,33.30
2019-05-14T16:43:49.356Z,32.84
2019-05-14T16:46:20.061Z,35.45
2019-05-14T16:48:49.527Z,35.51
2019-05-14T16:51:19.461Z,34.16
2019-05-14T16:53:49.092Z,28.77
2019-05-14T16:56:19.264Z,27.64
2019-05-14T16:58:48.691Z,27.69
2019-05-14T17:01:19.236Z,27.20
2019-05-14T17:03:49.540Z,27.16
2019-05-14T17:06:19.075Z,27.30
2019-05-14T17:08:49.085Z,27.87
2019-05-14T17:11:18.724Z,27.97
2019-05-14T17:13:48.911Z,28.33
2019-05-14T17:16:19.549Z,27.25
2019-05-14T17:18:49.084Z,27.51
2019-05-14T17:21:19.390Z,27.53
2019-05-14T17:23:49.137Z,28.09
2019-05-14T17:26:18.815Z,27.89
2019-05-14T17:28:48.991Z,27.54
2019-05-14T17:31:19.212Z,27.45
2019-05-14T17:33:49.204Z,27.72
2019-05-14T17:36:18.972Z,27.51
2019-05-14T17:38:49.277Z,27.89
2019-05-14T17:41:19.556Z,28.63
2019-05-14T17:43:49.594Z,28.45
2019-05-14T17:46:19.050Z,28.71
2019-05-14T17:48:48.847Z,29.11
2019-05-14T17:51:18.537Z,29.77
2019-05-14T17:53:48.311Z,29.10
2019-05-14T17:56:19.146Z,29.48
2019-05-14T17:58:49.082Z,29.94
2019-05-14T18:01:19.415Z,29.81
2019-05-14T18:03:49.217Z,29.84
2019-05-14T18:06:19.744Z,29.75
2019-05-14T18:08:49.165Z,29.06
2019-05-14T18:11:19.191Z,29.06
2019-05-14T18:13:48.807Z,29.77
2019-05-14T18:16:19.211Z,30.58
2019-05-14T18:18:49.563Z,30.67
2019-05-14T18:21:18.947Z,30.95
2019-05-14T18:23:49.254Z,31.00
2019-05-14T18:26:19.082Z,30.98
2019-05-14T18:28:48.432Z,30.95
2019-05-14T18:31:20.339Z,31.07
2019-05-14T18:33:49.318Z,31.49
2019-05-14T18:36:19.267Z,31.97
2019-05-14T18:38:49.439Z,32.08
2019-05-14T18:41:19.849Z,32.76
2019-05-14T18:43:49.184Z,31.83
2019-05-14T18:46:19.234Z,34.06
2019-05-14T18:48:48.957Z,33.93
2019-05-14T18:51:19.576Z,33.80
2019-05-14T18:53:50.455Z,32.96
2019-05-14T18:56:24.177Z,32.47
2019-05-14T18:58:50.851Z,33.43
2019-05-14T19:01:21.139Z,33.92
2019-05-14T19:03:50.694Z,33.91
2019-05-14T19:06:20.031Z,33.78
2019-05-14T19:08:49.361Z,34.01
2019-05-14T19:11:18.687Z,34.27
2019-05-14T19:13:48.517Z,33.15
2019-05-14T19:16:17.918Z,34.44
2019-05-14T19:18:48.871Z,34.75
2019-05-14T19:21:18.582Z,34.52
2019-05-14T19:23:49.207Z,36.01
2019-05-14T19:26:33.117Z,35.71
2019-05-14T19:28:49.743Z,36.01
2019-05-14T19:31:19.091Z,35.89
2019-05-14T19:33:48.875Z,36.01
2019-05-14T19:36:18.843Z,36.48
2019-05-14T19:38:48.328Z,36.66
2019-05-14T19:41:20.917Z,37.23
2019-05-14T19:43:49.140Z,37.82
2019-05-14T19:46:18.492Z,37.62
2019-05-14T19:48:48.449Z,37.43
2019-05-14T19:51:18.774Z,38.97
2019-05-14T19:53:49.532Z,37.82
2019-05-14T19:56:20.390Z,39.58
2019-05-14T19:58:49.721Z,39.86
2019-05-14T20:01:19.438Z,41.16
2019-05-14T20:03:48.790Z,40.82
2019-05-14T20:06:18.815Z,41.73
2019-05-14T20:08:48.437Z,41.48
2019-05-14T20:11:19.240Z,42.68
2019-05-14T20:13:49.885Z,43.25
2019-05-14T20:16:20.273Z,42.74
2019-05-14T20:18:49.600Z,42.89
2019-05-14T20:21:18.931Z,43.02
2019-05-14T20:23:48.501Z,45.12
2019-05-14T20:26:17.939Z,44.87
2019-05-14T20:28:48.399Z,44.66
2019-05-14T20:31:18.228Z,45.03
2019-05-14T20:33:48.514Z,45.81
2019-05-14T20:36:18.747Z,45.29
2019-05-14T20:38:49.536Z,46.78
2019-05-14T20:41:18.890Z,46.69
2019-05-14T20:43:48.323Z,45.69
2019-05-14T20:46:18.621Z,46.88
2019-05-14T20:48:49.199Z,46.96
2019-05-14T20:51:18.792Z,46.91
2019-05-14T20:53:48.841Z,47.93
2019-05-14T20:56:18.954Z,48.08
2019-05-14T20:58:48.438Z,48.82
2019-05-14T21:01:18.424Z,48.65
2019-05-14T21:03:48.386Z,48.95
2019-05-14T21:06:19.013Z,50.02
2019-05-14T21:08:49.288Z,49.09
2019-05-14T21:11:19.655Z,49.40
2019-05-14T21:13:50.367Z,49.32
2019-05-14T21:16:19.764Z,49.68
2019-05-14T21:18:49.377Z,50.27
2019-05-14T21:21:18.747Z,50.44
2019-05-14T21:23:49.021Z,50.45
2019-05-14T21:26:19.341Z,51.12
2019-05-14T21:28:48.911Z,51.92
2019-05-14T21:31:19.338Z,51.53
2019-05-14T21:33:49.059Z,52.42
2019-05-14T21:36:19.585Z,52.58
2019-05-14T21:38:49.199Z,53.45
2019-05-14T21:41:20.443Z,53.60
2019-05-14T21:43:49.670Z,53.84
2019-05-14T21:46:19.535Z,53.23
2019-05-14T21:48:49.238Z,55.24
2019-05-14T21:51:18.571Z,54.73
2019-05-14T21:53:48.398Z,55.27
2019-05-14T21:56:21.266Z,55.33
2019-05-14T21:58:48.851Z,55.05
2019-05-14T22:01:18.861Z,54.43
2019-05-14T22:03:49.238Z,55.16
2019-05-14T22:06:18.593Z,55.06
2019-05-14T22:08:48.767Z,55.94
2019-05-14T22:11:18.886Z,55.34
2019-05-14T22:13:49.728Z,55.90
2019-05-14T22:16:19.219Z,55.51
2019-05-14T22:18:48.534Z,55.50
2019-05-14T22:21:18.332Z,55.36
2019-05-14T22:23:48.280Z,55.69
2019-05-14T22:26:18.634Z,56.44
2019-05-14T22:28:48.132Z,55.82
2019-05-14T22:31:19.297Z,57.20
2019-05-14T22:33:48.496Z,56.72
2019-05-14T22:36:21.328Z,56.50
2019-05-14T22:38:48.849Z,56.18
2019-05-14T22:41:18.590Z,57.15
2019-05-14T22:43:48.750Z,56.21
2019-05-14T22:46:19.253Z,55.60
2019-05-14T22:48:51.456Z,56.94
2019-05-14T22:51:19.609Z,56.91
2019-05-14T22:53:49.543Z,56.01
2019-05-14T22:56:20.483Z,57.36
2019-05-14T22:58:49.814Z,56.33
2019-05-14T23:01:19.166Z,56.83
2019-05-14T23:03:49.172Z,56.90
2019-05-14T23:06:19.562Z,57.55
2019-05-14T23:08:49.011Z,57.04
2019-05-14T23:11:19.715Z,56.17
2019-05-14T23:13:50.398Z,56.59
2019-05-14T23:16:33.392Z,56.39
2019-05-14T23:18:50.760Z,57.03
2019-05-14T23:21:20.083Z,57.04
2019-05-14T23:23:49.407Z,57.80
2019-05-14T23:26:19.289Z,57.88
2019-05-14T23:28:49.177Z,58.10
2019-05-14T23:31:18.918Z,58.63
2019-05-14T23:33:48.971Z,58.80
2019-05-14T23:36:18.652Z,59.23
2019-05-14T23:38:49.278Z,58.25
2019-05-14T23:41:19.338Z,57.10
2019-05-14T23:43:48.688Z,56.29
2019-05-14T23:46:18.402Z,54.78
2019-05-14T23:48:48.480Z,54.50
2019-05-14T23:51:18.275Z,54.66
2019-05-14T23:53:48.310Z,54.99
2019-05-14T23:56:19.366Z,54.93
2019-05-14T23:58:57.678Z,55.46
